createdAt,value
2018-02-08T00:01:32.226Z,93662.57
2018-02-08T00:04:00.226Z,93660.48
2018-02-08T00:06:28.062Z,93658.80
2018-02-08T00:08:56.083Z,93661.11
2018-02-08T00:11:23.995Z,93653.92
2018-02-08T00:13:51.998Z,93661.27
2018-02-08T00:16:19.932Z,93661.06
2018-02-08T00:18:47.944Z,93670.05
2018-02-08T00:21:15.771Z,93668.09
2018-02-08T00:23:43.784Z,93672.95
2018-02-08T00:26:12.022Z,93667.75
2018-02-08T00:28:39.910Z,93661.30
2018-02-08T00:31:07.999Z,93665.13
2018-02-08T00:33:36.070Z,93664.06
2018-02-08T00:36:03.939Z,93664.58
2018-02-08T00:38:31.982Z,93667.52
2018-02-08T00:40:59.951Z,93662.66
2018-02-08T00:43:27.791Z,93660.56
2018-02-08T00:45:55.757Z,93661.91
2018-02-08T00:48:23.574Z,93665.11
2018-02-08T00:50:51.491Z,93666.38
2018-02-08T00:53:19.560Z,93667.99
2018-02-08T00:55:47.324Z,93677.44
2018-02-08T00:58:16.165Z,93675.99
2018-02-08T01:00:44.236Z,93685.64
2018-02-08T01:03:12.155Z,93678.62
2018-02-08T01:05:39.880Z,93682.28
2018-02-08T01:08:07.814Z,93688.36
2018-02-08T01:10:35.799Z,93683.81
2018-02-08T01:13:03.778Z,93680.86
2018-02-08T01:15:31.850Z,93682.20
2018-02-08T01:17:59.927Z,93683.48
2018-02-08T01:20:28.001Z,93681.98
2018-02-08T01:22:56.067Z,93677.59
2018-02-08T01:25:24.105Z,93684.06
2018-02-08T01:27:53.032Z,93681.83
2018-02-08T01:30:20.864Z,93681.36
2018-02-08T01:32:48.953Z,93669.59
2018-02-08T01:35:16.818Z,93676.45
2018-02-08T01:37:44.765Z,93671.28
2018-02-08T01:40:12.773Z,93667.86
2018-02-08T01:42:40.698Z,93666.49
2018-02-08T01:45:08.788Z,93672.19
2018-02-08T01:47:36.653Z,93674.63
2018-02-08T01:50:04.342Z,93678.88
2018-02-08T01:52:32.417Z,93681.28
2018-02-08T01:55:00.286Z,93678.66
2018-02-08T01:57:28.363Z,93677.69
2018-02-08T01:59:56.364Z,93682.31
2018-02-08T02:02:24.480Z,93678.95
2018-02-08T02:04:52.373Z,93684.13
2018-02-08T02:07:20.292Z,93684.86
2018-02-08T02:09:48.826Z,93682.39
2018-02-08T02:12:17.352Z,93684.35
2018-02-08T02:14:45.240Z,93689.06
2018-02-08T02:17:13.331Z,93690.03
2018-02-08T02:19:41.199Z,93688.84
2018-02-08T02:22:10.792Z,93687.32
2018-02-08T02:24:38.587Z,93686.45
2018-02-08T02:27:06.579Z,93695.16
2018-02-08T02:29:34.519Z,93697.31
2018-02-08T02:32:02.584Z,93696.99
2018-02-08T02:34:30.671Z,93699.70
2018-02-08T02:36:59.983Z,93697.63
2018-02-08T02:39:28.242Z,93698.97
2018-02-08T02:41:56.312Z,93695.45
2018-02-08T02:44:24.244Z,93696.64
2018-02-08T02:46:52.182Z,93696.67
2018-02-08T02:49:20.124Z,93703.22
2018-02-08T02:51:48.146Z,93699.55
2018-02-08T02:54:16.093Z,93707.05
2018-02-08T02:56:44.128Z,93706.39
2018-02-08T02:59:12.200Z,93711.33
2018-02-08T03:01:40.262Z,93708.48
2018-02-08T03:04:08.369Z,93716.95
2018-02-08T03:06:36.273Z,93718.05
2018-02-08T03:09:04.440Z,93715.98
2018-02-08T03:11:32.566Z,93723.31
2018-02-08T03:14:00.598Z,93722.82
2018-02-08T03:16:28.510Z,93724.50
2018-02-08T03:18:56.929Z,93726.98
2018-02-08T03:21:25.046Z,93728.48
2018-02-08T03:23:53.114Z,93726.66
2018-02-08T03:26:21.186Z,93724.27
2018-02-08T03:28:49.246Z,93732.28
2018-02-08T03:31:18.018Z,93730.42
2018-02-08T03:33:50.733Z,93730.58
2018-02-08T03:36:18.615Z,93730.33
2018-02-08T03:38:46.664Z,93732.41
2018-02-08T03:41:14.546Z,93733.05
2018-02-08T03:43:42.615Z,93732.34
2018-02-08T03:46:11.099Z,93734.23
2018-02-08T03:48:39.360Z,93732.41
2018-02-08T03:51:07.278Z,93731.61
2018-02-08T03:53:35.196Z,93734.88
2018-02-08T03:56:03.267Z,93740.78
2018-02-08T03:58:31.889Z,93742.86
2018-02-08T04:00:59.634Z,93743.37
2018-02-08T04:03:27.401Z,93751.19
2018-02-08T04:05:55.220Z,93743.17
2018-02-08T04:08:23.188Z,93745.72
2018-02-08T04:10:51.019Z,93742.70
2018-02-08T04:13:18.929Z,93743.75
2018-02-08T04:15:46.896Z,93748.70
2018-02-08T04:18:14.665Z,93755.08
2018-02-08T04:20:42.538Z,93746.55
2018-02-08T04:23:10.405Z,93754.64
2018-02-08T04:25:38.127Z,93756.00
2018-02-08T04:28:06.120Z,93755.60
2018-02-08T04:30:34.240Z,93762.54
2018-02-08T04:33:02.116Z,93765.30
2018-02-08T04:35:30.258Z,93761.22
2018-02-08T04:37:58.324Z,93767.13
2018-02-08T04:40:38.064Z,93770.23
2018-02-08T04:43:17.743Z,93770.32
2018-02-08T04:45:57.552Z,93774.42
2018-02-08T04:48:25.563Z,93776.34
2018-02-08T04:50:53.636Z,93774.11
2018-02-08T04:53:21.514Z,93781.81
2018-02-08T04:55:49.554Z,93771.00
2018-02-08T04:58:17.750Z,93773.80
2018-02-08T05:00:45.695Z,93777.38
2018-02-08T05:03:13.483Z,93784.68
2018-02-08T05:05:41.406Z,93783.72
2018-02-08T05:08:09.277Z,93790.98
2018-02-08T05:10:37.471Z,93793.78
2018-02-08T05:13:05.564Z,93791.54
2018-02-08T05:15:33.610Z,93791.13
2018-02-08T05:18:01.681Z,93794.73
2018-02-08T05:20:29.782Z,93793.61
2018-02-08T05:22:57.866Z,93799.52
2018-02-08T05:25:26.314Z,93795.45
2018-02-08T05:27:54.406Z,93803.19
2018-02-08T05:30:22.431Z,93810.13
2018-02-08T05:32:50.445Z,93811.92
2018-02-08T05:35:18.588Z,93816.75
2018-02-08T05:37:46.682Z,93821.38
2018-02-08T05:40:15.026Z,93825.20
2018-02-08T05:42:43.019Z,93831.43
2018-02-08T05:45:11.089Z,93832.70
2018-02-08T05:47:39.759Z,93834.06
2018-02-08T05:50:08.127Z,93835.90
2018-02-08T05:52:36.227Z,93837.02
2018-02-08T05:55:05.146Z,93837.66
2018-02-08T05:57:33.217Z,93840.92
2018-02-08T06:00:00.983Z,93848.98
2018-02-08T06:02:28.825Z,93843.23
2018-02-08T06:04:56.620Z,93846.67
2018-02-08T06:07:24.685Z,93851.94
2018-02-08T06:09:52.736Z,93846.44
2018-02-08T06:12:20.722Z,93857.84
2018-02-08T06:14:48.650Z,93861.91
2018-02-08T06:17:16.766Z,93868.38
2018-02-08T06:19:44.785Z,93871.33
2018-02-08T06:22:12.607Z,93877.16
2018-02-08T06:24:40.948Z,93875.34
2018-02-08T06:27:08.849Z,93883.45
2018-02-08T06:29:36.738Z,93884.36
2018-02-08T06:32:05.709Z,93891.75
2018-02-08T06:34:33.788Z,93896.40
2018-02-08T06:37:01.670Z,93892.66
2018-02-08T06:39:29.567Z,93897.66
2018-02-08T06:41:57.657Z,93900.37
2018-02-08T06:44:25.551Z,93905.72
2018-02-08T06:46:53.602Z,93912.41
2018-02-08T06:49:21.702Z,93914.98
2018-02-08T06:51:49.769Z,93916.88
2018-02-08T06:54:17.780Z,93916.64
2018-02-08T06:56:45.576Z,93922.00
2018-02-08T06:59:13.445Z,93920.08
2018-02-08T07:01:41.443Z,93916.01
2018-02-08T07:04:09.485Z,93922.88
2018-02-08T07:06:37.700Z,93924.80
2018-02-08T07:09:06.048Z,93927.80
2018-02-08T07:11:34.616Z,93932.99
2018-02-08T07:14:02.587Z,93937.46
2018-02-08T07:16:30.899Z,93941.69
2018-02-08T07:18:58.948Z,93947.76
2018-02-08T07:21:27.052Z,93950.47
2018-02-08T07:23:55.239Z,93956.13
2018-02-08T07:26:23.129Z,93953.11
2018-02-08T07:28:50.964Z,93961.25
2018-02-08T07:31:18.818Z,93958.03
2018-02-08T07:33:46.711Z,93963.14
2018-02-08T07:36:14.608Z,93962.50
2018-02-08T07:38:42.625Z,93960.67
2018-02-08T07:41:10.742Z,93966.81
2018-02-08T07:43:38.773Z,93966.73
2018-02-08T07:46:06.788Z,93967.77
2018-02-08T07:48:34.682Z,93974.13
2018-02-08T07:51:04.124Z,93972.61
2018-02-08T07:53:32.166Z,93967.91
2018-02-08T07:56:00.111Z,93967.75
2018-02-08T07:58:28.478Z,93971.73
2018-02-08T08:00:56.502Z,93963.03
2018-02-08T08:03:24.573Z,93971.89
2018-02-08T08:05:53.042Z,93965.79
2018-02-08T08:08:21.127Z,93970.34
2018-02-08T08:10:49.080Z,93968.91
2018-02-08T08:13:17.068Z,93965.58
2018-02-08T08:15:45.136Z,93966.34
2018-02-08T08:18:13.213Z,93966.75
2018-02-08T08:20:41.285Z,93956.83
2018-02-08T08:23:09.352Z,93959.34
2018-02-08T08:25:37.326Z,93968.20
2018-02-08T08:28:05.390Z,93966.28
2018-02-08T08:30:33.335Z,93968.19
2018-02-08T08:33:02.155Z,93971.00
2018-02-08T08:35:30.229Z,93971.23
2018-02-08T08:37:57.931Z,93975.64
2018-02-08T08:40:25.958Z,93971.16
2018-02-08T08:42:55.059Z,93972.75
2018-02-08T08:45:22.924Z,93975.65
2018-02-08T08:47:50.896Z,93974.61
2018-02-08T08:50:18.966Z,93983.02
2018-02-08T08:52:47.039Z,93986.65
2018-02-08T08:55:15.106Z,93985.13
2018-02-08T08:57:42.970Z,93989.13
2018-02-08T09:00:11.052Z,93994.89
2018-02-08T09:02:41.276Z,94000.40
2018-02-08T09:05:09.228Z,93996.60
2018-02-08T09:07:37.596Z,93994.52
2018-02-08T09:10:05.695Z,94000.03
2018-02-08T09:12:33.828Z,94000.45
2018-02-08T09:15:01.883Z,94005.06
2018-02-08T09:17:30.648Z,94004.60
2018-02-08T09:19:58.547Z,94007.73
2018-02-08T09:22:26.542Z,94006.34
2018-02-08T09:24:54.634Z,94008.37
2018-02-08T09:27:22.614Z,94010.68
2018-02-08T09:29:50.597Z,94010.59
2018-02-08T09:32:19.718Z,94012.42
2018-02-08T09:34:47.846Z,94019.39
2018-02-08T09:37:15.814Z,94022.22
2018-02-08T09:39:43.649Z,94012.06
2018-02-08T09:42:12.844Z,94014.28
2018-02-08T09:44:40.937Z,94022.62
2018-02-08T09:47:09.307Z,94022.89
2018-02-08T09:49:37.155Z,94020.86
2018-02-08T09:52:05.269Z,94021.56
2018-02-08T09:54:33.310Z,94019.55
2018-02-08T09:57:01.208Z,94023.56
2018-02-08T09:59:29.180Z,94024.67
2018-02-08T10:01:57.251Z,94030.92
2018-02-08T10:04:25.305Z,94032.58
2018-02-08T10:06:53.194Z,94031.86
2018-02-08T10:09:21.138Z,94030.00
2018-02-08T10:11:49.721Z,94024.58
2018-02-08T10:14:17.611Z,94028.94
2018-02-08T10:16:45.448Z,94025.23
2018-02-08T10:19:13.410Z,94024.95
2018-02-08T10:21:46.236Z,94029.41
2018-02-08T10:24:14.106Z,94030.17
2018-02-08T10:26:43.389Z,94030.79
2018-02-08T10:29:11.425Z,94029.14
2018-02-08T10:31:39.358Z,94027.73
2018-02-08T10:34:07.275Z,94026.61
2018-02-08T10:36:34.983Z,94030.94
2018-02-08T10:39:02.719Z,94021.28
2018-02-08T10:41:30.785Z,94022.22
2018-02-08T10:43:58.538Z,94021.88
2018-02-08T10:46:26.308Z,94025.07
2018-02-08T10:48:54.039Z,94019.94
2018-02-08T10:51:22.170Z,94018.11
2018-02-08T10:53:49.888Z,94018.06
2018-02-08T10:56:17.598Z,94011.94
2018-02-08T10:58:45.326Z,94015.92
2018-02-08T11:01:13.066Z,94008.80
2018-02-08T11:03:40.803Z,94010.59
2018-02-08T11:06:08.497Z,94005.75
2018-02-08T11:08:36.283Z,94005.98
2018-02-08T11:11:03.960Z,94006.49
2018-02-08T11:13:31.696Z,94003.69
2018-02-08T11:15:59.424Z,94009.66
2018-02-08T11:18:27.186Z,94009.34
2018-02-08T11:20:54.918Z,94004.20
2018-02-08T11:23:22.782Z,94003.78
2018-02-08T11:25:50.525Z,93994.05
2018-02-08T11:28:18.272Z,93999.18
2018-02-08T11:30:46.028Z,94003.56
2018-02-08T11:33:14.013Z,94000.69
2018-02-08T11:35:41.792Z,94001.92
2018-02-08T11:38:09.565Z,94003.73
2018-02-08T11:40:37.708Z,94010.67
2018-02-08T11:43:05.900Z,94003.20
2018-02-08T11:45:33.634Z,94006.88
2018-02-08T11:48:01.395Z,94005.08
2018-02-08T11:50:29.175Z,94002.14
2018-02-08T11:52:56.943Z,93996.91
2018-02-08T11:55:24.714Z,93998.16
2018-02-08T11:57:52.498Z,94006.09
2018-02-08T12:00:20.225Z,94000.71
2018-02-08T12:02:48.005Z,93994.81
2018-02-08T12:05:15.787Z,93990.50
2018-02-08T12:07:43.540Z,93988.39
2018-02-08T12:10:12.176Z,93986.14
2018-02-08T12:12:39.962Z,93993.03
2018-02-08T12:15:07.661Z,93996.27
2018-02-08T12:17:35.378Z,93987.39
2018-02-08T12:20:03.141Z,93982.74
2018-02-08T12:22:31.256Z,93986.76
2018-02-08T12:24:59.036Z,93991.28
2018-02-08T12:27:26.748Z,93986.89
2018-02-08T12:29:54.504Z,93983.06
2018-02-08T12:32:22.246Z,93976.27
2018-02-08T12:34:49.949Z,93986.78
2018-02-08T12:37:17.726Z,93985.02
2018-02-08T12:39:45.425Z,93982.30
2018-02-08T12:42:13.180Z,93983.14
2018-02-08T12:44:40.933Z,93975.84
2018-02-08T12:47:08.778Z,93974.86
2018-02-08T12:49:36.500Z,93972.17
2018-02-08T12:52:04.292Z,93966.05
2018-02-08T12:54:32.558Z,93964.97
2018-02-08T12:57:00.422Z,93962.41
2018-02-08T12:59:28.240Z,93961.98
2018-02-08T13:01:56.258Z,93962.18
2018-02-08T13:04:24.139Z,93962.70
2018-02-08T13:06:52.011Z,93961.88
2018-02-08T13:09:19.957Z,93962.86
2018-02-08T13:11:48.033Z,93962.84
2018-02-08T13:14:15.902Z,93959.42
2018-02-08T13:16:43.940Z,93968.39
2018-02-08T13:19:12.051Z,93967.73
2018-02-08T13:21:39.741Z,93972.20
2018-02-08T13:24:07.491Z,93968.09
2018-02-08T13:26:35.264Z,93966.27
2018-02-08T13:29:03.039Z,93968.20
2018-02-08T13:31:30.909Z,93971.46
2018-02-08T13:33:58.942Z,93972.87
2018-02-08T13:36:37.850Z,93975.45
2018-02-08T13:39:06.137Z,93976.42
2018-02-08T13:41:34.201Z,93974.65
2018-02-08T13:44:02.276Z,93978.45
2018-02-08T13:46:30.570Z,93978.05
2018-02-08T13:48:59.243Z,93976.39
2018-02-08T13:51:33.063Z,93975.16
2018-02-08T13:57:09.549Z,93980.64
2018-02-08T13:59:39.045Z,93983.74
2018-02-08T14:02:06.952Z,93982.73
2018-02-08T14:04:35.072Z,93982.61
2018-02-08T14:07:02.783Z,93982.06
2018-02-08T14:09:30.536Z,93988.67
2018-02-08T14:11:58.246Z,93989.31
2018-02-08T14:14:26.001Z,93981.81
2018-02-08T14:16:54.060Z,93980.03
2018-02-08T14:19:22.632Z,93983.83
2018-02-08T14:21:50.869Z,93978.34
2018-02-08T14:24:19.464Z,93980.67
2018-02-08T14:26:48.326Z,93976.54
2018-02-08T14:29:16.422Z,93975.84
2018-02-08T14:31:44.264Z,93975.09
2018-02-08T14:34:11.988Z,93976.05
2018-02-08T14:36:40.212Z,93974.95
2018-02-08T14:39:07.957Z,93980.35
2018-02-08T14:41:35.713Z,93982.17
2018-02-08T14:44:04.487Z,93979.91
2018-02-08T14:46:32.279Z,93987.18
2018-02-08T14:49:00.032Z,93983.64
2018-02-08T14:51:27.861Z,93989.86
2018-02-08T14:53:55.674Z,93988.27
2018-02-08T14:56:23.393Z,93992.12
2018-02-08T14:58:51.506Z,93989.73
2018-02-08T15:01:19.255Z,93991.70
2018-02-08T15:03:47.564Z,93990.86
2018-02-08T15:06:16.086Z,93997.13
2018-02-08T15:08:44.353Z,93990.80
2018-02-08T15:11:12.218Z,93993.94
2018-02-08T15:13:40.297Z,93995.02
2018-02-08T15:16:08.363Z,93993.34
2018-02-08T15:18:36.372Z,93990.33
2018-02-08T15:21:04.505Z,93994.81
2018-02-08T15:23:32.575Z,93999.30
2018-02-08T15:26:00.516Z,93996.11
2018-02-08T15:28:28.384Z,93995.92
2018-02-08T15:30:57.763Z,94001.88
2018-02-08T15:33:27.584Z,93996.81
2018-02-08T15:35:55.518Z,93995.73
2018-02-08T15:38:23.774Z,93999.56
2018-02-08T15:40:53.306Z,93998.11
2018-02-08T15:43:22.312Z,93999.42
2018-02-08T15:45:50.749Z,93997.50
2018-02-08T15:48:19.134Z,94007.22
2018-02-08T15:50:48.483Z,94003.28
2018-02-08T15:53:16.480Z,94001.64
2018-02-08T15:55:44.728Z,94007.63
2018-02-08T15:58:13.559Z,94009.48
2018-02-08T16:00:41.445Z,94006.91
2018-02-08T16:03:09.510Z,94015.01
2018-02-08T16:05:37.585Z,94019.58
2018-02-08T16:08:05.856Z,94018.98
2018-02-08T16:10:33.743Z,94017.55
2018-02-08T16:13:01.812Z,94022.73
2018-02-08T16:15:30.394Z,94024.58
2018-02-08T16:17:58.555Z,94030.30
2018-02-08T16:20:26.492Z,94032.87
2018-02-08T16:22:54.325Z,94035.49
2018-02-08T16:25:23.959Z,94037.36
2018-02-08T16:27:52.013Z,94032.28
2018-02-08T16:30:20.144Z,94032.20
2018-02-08T16:32:48.072Z,94033.50
2018-02-08T16:35:18.145Z,94038.38
2018-02-08T16:37:46.269Z,94033.20
2018-02-08T16:40:14.750Z,94040.78
2018-02-08T16:42:43.638Z,94041.56
2018-02-08T16:45:11.580Z,94044.38
2018-02-08T16:47:39.721Z,94051.53
2018-02-08T16:50:09.138Z,94054.98
2018-02-08T16:52:37.169Z,94058.25
2018-02-08T16:55:06.131Z,94066.50
2018-02-08T16:57:34.748Z,94067.23
2018-02-08T17:00:02.850Z,94070.40
2018-02-08T17:02:30.917Z,94068.40
2018-02-08T17:04:59.026Z,94068.97
2018-02-08T17:07:27.214Z,94062.48
2018-02-08T17:09:55.300Z,94067.70
2018-02-08T17:12:23.378Z,94068.03
2018-02-08T17:14:52.285Z,94069.64
2018-02-08T17:17:20.276Z,94067.55
2018-02-08T17:19:48.331Z,94073.84
2018-02-08T17:22:16.420Z,94074.97
2018-02-08T17:24:44.726Z,94079.37
2018-02-08T17:27:12.723Z,94082.90
2018-02-08T17:29:40.677Z,94077.69
2018-02-08T17:32:09.501Z,94079.62
2018-02-08T17:34:37.592Z,94081.08
2018-02-08T17:37:05.710Z,94087.76
2018-02-08T17:39:33.660Z,94093.52
2018-02-08T17:42:01.732Z,94087.44
2018-02-08T17:44:29.499Z,94090.68
2018-02-08T17:46:57.284Z,94088.92
2018-02-08T17:49:25.097Z,94091.64
2018-02-08T17:51:53.094Z,94093.77
2018-02-08T17:54:21.133Z,94094.03
2018-02-08T17:56:49.200Z,94092.44
2018-02-08T17:59:17.302Z,94095.16
2018-02-08T18:01:45.632Z,94106.35
2018-02-08T18:04:13.977Z,94101.87
2018-02-08T18:06:41.772Z,94099.80
2018-02-08T18:09:09.797Z,94106.23
2018-02-08T18:11:37.875Z,94104.75
2018-02-08T18:14:06.919Z,94109.23
2018-02-08T18:16:34.930Z,94102.59
2018-02-08T18:19:03.618Z,94110.77
2018-02-08T18:21:31.693Z,94107.98
2018-02-08T18:23:59.786Z,94106.78
2018-02-08T18:26:28.404Z,94112.02
2018-02-08T18:28:56.417Z,94110.53
2018-02-08T18:31:24.362Z,94111.33
2018-02-08T18:33:52.699Z,94106.22
2018-02-08T18:36:21.341Z,94112.84
2018-02-08T18:38:50.342Z,94114.61
2018-02-08T18:41:18.145Z,94109.81
2018-02-08T18:43:46.099Z,94110.00
2018-02-08T18:46:13.974Z,94106.88
2018-02-08T18:48:43.041Z,94111.11
2018-02-08T18:51:11.016Z,94111.99
2018-02-08T18:53:38.845Z,94112.62
2018-02-08T18:56:06.949Z,94111.59
2018-02-08T18:58:36.086Z,94118.54
2018-02-08T19:01:05.617Z,94121.49
2018-02-08T19:03:33.623Z,94114.05
2018-02-08T19:06:01.546Z,94122.53
2018-02-08T19:08:29.367Z,94126.99
2018-02-08T19:10:57.161Z,94129.63
2018-02-08T19:13:24.939Z,94141.23
2018-02-08T19:15:52.790Z,94141.07
2018-02-08T19:18:20.516Z,94135.48
2018-02-08T19:20:48.290Z,94142.17
2018-02-08T19:23:16.202Z,94137.95
2018-02-08T19:25:45.536Z,94133.86
2018-02-08T19:28:14.461Z,94136.76
2018-02-08T19:30:42.255Z,94139.55
2018-02-08T19:33:09.958Z,94136.34
2018-02-08T19:35:37.647Z,94140.01
2018-02-08T19:38:06.687Z,94141.36
2018-02-08T19:40:34.372Z,94140.00
2018-02-08T19:43:02.121Z,94143.66
2018-02-08T19:45:30.959Z,94146.78
2018-02-08T19:47:58.724Z,94143.39
2018-02-08T19:50:26.448Z,94140.75
2018-02-08T19:52:54.363Z,94139.05
2018-02-08T19:55:22.087Z,94137.95
2018-02-08T19:57:49.878Z,94141.78
2018-02-08T20:00:17.595Z,94147.13
2018-02-08T20:02:45.343Z,94147.05
2018-02-08T20:05:13.137Z,94141.70
2018-02-08T20:07:40.904Z,94151.02
2018-02-08T20:10:08.609Z,94146.23
2018-02-08T20:12:36.404Z,94149.13
2018-02-08T20:15:06.870Z,94159.31
2018-02-08T20:17:34.606Z,94155.16
2018-02-08T20:20:02.476Z,94152.18
2018-02-08T20:22:30.256Z,94156.72
2018-02-08T20:24:58.050Z,94154.50
2018-02-08T20:27:25.807Z,94153.13
2018-02-08T20:29:53.582Z,94150.44
2018-02-08T20:32:21.311Z,94154.56
2018-02-08T20:34:49.062Z,94150.83
2018-02-08T20:37:16.756Z,94150.62
2018-02-08T20:39:44.814Z,94150.59
2018-02-08T20:42:18.017Z,94153.02
2018-02-08T20:44:45.822Z,94152.42
2018-02-08T20:47:13.578Z,94150.27
2018-02-08T20:49:46.969Z,94157.18
2018-02-08T20:52:14.732Z,94152.17
2018-02-08T20:54:42.426Z,94153.67
2018-02-08T20:57:10.144Z,94147.77
2018-02-08T20:59:37.905Z,94151.25
2018-02-08T21:02:05.676Z,94143.97
2018-02-08T21:04:33.448Z,94145.27
2018-02-08T21:07:01.221Z,94145.82
2018-02-08T21:09:29.067Z,94140.98
2018-02-08T21:11:57.357Z,94145.94
2018-02-08T21:14:25.046Z,94142.84
2018-02-08T21:16:52.801Z,94141.66
2018-02-08T21:19:20.538Z,94142.83
2018-02-08T21:21:48.272Z,94141.24
2018-02-08T21:24:16.038Z,94144.52
2018-02-08T21:26:44.046Z,94147.93
2018-02-08T21:29:11.786Z,94144.92
2018-02-08T21:31:39.547Z,94149.50
2018-02-08T21:34:07.218Z,94149.52
2018-02-08T21:36:35.029Z,94147.49
2018-02-08T21:39:02.753Z,94148.50
2018-02-08T21:41:30.528Z,94151.08
2018-02-08T21:43:58.219Z,94149.89
2018-02-08T21:46:25.928Z,94145.47
2018-02-08T21:48:53.724Z,94137.81
2018-02-08T21:51:21.446Z,94147.79
2018-02-08T21:53:49.252Z,94140.18
2018-02-08T21:56:17.207Z,94138.95
2018-02-08T21:58:44.971Z,94137.02
2018-02-08T22:01:12.681Z,94140.06
2018-02-08T22:03:40.375Z,94134.71
2018-02-08T22:06:08.284Z,94140.62
2018-02-08T22:08:36.006Z,94140.56
2018-02-08T22:11:03.734Z,94133.95
2018-02-08T22:13:31.448Z,94141.17
2018-02-08T22:15:59.226Z,94140.14
2018-02-08T22:18:26.907Z,94137.36
2018-02-08T22:20:54.617Z,94139.02
2018-02-08T22:23:22.337Z,94144.45
2018-02-08T22:25:50.986Z,94149.06
2018-02-08T22:28:18.714Z,94147.91
2018-02-08T22:30:46.486Z,94145.51
2018-02-08T22:33:14.206Z,94143.53
2018-02-08T22:35:41.972Z,94145.76
2018-02-08T22:38:09.695Z,94147.55
2018-02-08T22:40:37.429Z,94149.46
2018-02-08T22:43:06.384Z,94141.75
2018-02-08T22:45:34.095Z,94144.63
2018-02-08T22:48:03.091Z,94143.38
2018-02-08T22:50:30.772Z,94141.25
2018-02-08T22:52:58.447Z,94138.23
2018-02-08T22:55:26.398Z,94134.50
2018-02-08T22:57:54.078Z,94135.75
2018-02-08T23:00:21.892Z,94133.23
2018-02-08T23:02:49.977Z,94136.11
2018-02-08T23:05:17.726Z,94133.08
2018-02-08T23:07:45.477Z,94135.83
2018-02-08T23:10:13.189Z,94134.83
2018-02-08T23:12:40.965Z,94130.72
2018-02-08T23:15:08.971Z,94134.53
2018-02-08T23:17:37.251Z,94136.85
2018-02-08T23:20:05.124Z,94143.22
2018-02-08T23:22:33.186Z,94145.69
2018-02-08T23:25:01.258Z,94137.97
2018-02-08T23:27:29.945Z,94137.94
2018-02-08T23:29:58.942Z,94133.91
2018-02-08T23:32:26.778Z,94136.20
2018-02-08T23:34:54.673Z,94139.11
2018-02-08T23:37:22.532Z,94144.35
2018-02-08T23:39:50.482Z,94143.73
2018-02-08T23:42:18.445Z,94133.61
2018-02-08T23:44:46.244Z,94140.67
2018-02-08T23:47:14.318Z,94139.03
2018-02-08T23:49:42.369Z,94144.73
2018-02-08T23:52:10.088Z,94138.88
2018-02-08T23:54:37.881Z,94139.06
2018-02-08T23:57:05.888Z,94150.11
2018-02-08T23:59:33.812Z,94145.45
